sensor_id;sensor_type;location;lat;lon;timestamp;P1;durP1;ratioP1;P2;durP2;ratioP2
42514;SDS011;28144;49.920;18.730;2023-02-01T00:01:39;10.43;;;5.63;;
42514;SDS011;28144;49.920;18.730;2023-02-01T00:04:06;12.52;;;5.03;;
42514;SDS011;28144;49.920;18.730;2023-02-01T00:06:31;12.70;;;5.87;;
42514;SDS011;28144;49.920;18.730;2023-02-01T00:08:57;9.87;;;5.10;;
42514;SDS011;28144;49.920;18.730;2023-02-01T00:11:23;11.70;;;5.90;;
42514;SDS011;28144;49.920;18.730;2023-02-01T00:13:49;10.82;;;5.80;;
42514;SDS011;28144;49.920;18.730;2023-02-01T00:16:16;18.17;;;7.80;;
42514;SDS011;28144;49.920;18.730;2023-02-01T00:18:45;8.07;;;4.63;;
42514;SDS011;28144;49.920;18.730;2023-02-01T00:21:12;12.20;;;5.80;;
42514;SDS011;28144;49.920;18.730;2023-02-01T00:23:39;11.83;;;6.20;;
42514;SDS011;28144;49.920;18.730;2023-02-01T00:26:06;14.13;;;6.37;;
42514;SDS011;28144;49.920;18.730;2023-02-01T00:28:34;17.97;;;8.13;;
42514;SDS011;28144;49.920;18.730;2023-02-01T00:31:00;13.73;;;6.53;;
42514;SDS011;28144;49.920;18.730;2023-02-01T00:33:28;14.43;;;6.47;;
42514;SDS011;28144;49.920;18.730;2023-02-01T00:35:58;10.87;;;5.73;;
42514;SDS011;28144;49.920;18.730;2023-02-01T00:38:32;10.07;;;6.13;;
42514;SDS011;28144;49.920;18.730;2023-02-01T00:41:03;16.33;;;6.63;;
42514;SDS011;28144;49.920;18.730;2023-02-01T00:43:42;11.80;;;6.83;;
42514;SDS011;28144;49.920;18.730;2023-02-01T00:46:09;14.88;;;7.70;;
42514;SDS011;28144;49.920;18.730;2023-02-01T00:48:35;12.40;;;7.15;;
42514;SDS011;28144;49.920;18.730;2023-02-01T00:51:02;13.53;;;6.37;;
42514;SDS011;28144;49.920;18.730;2023-02-01T00:53:30;15.87;;;6.97;;
42514;SDS011;28144;49.920;18.730;2023-02-01T00:55:57;15.15;;;6.75;;
42514;SDS011;28144;49.920;18.730;2023-02-01T00:58:23;14.05;;;6.50;;
42514;SDS011;28144;49.920;18.730;2023-02-01T01:03:50;12.80;;;6.37;;
42514;SDS011;28144;49.920;18.730;2023-02-01T01:06:22;12.83;;;6.30;;
42514;SDS011;28144;49.920;18.730;2023-02-01T01:08:56;15.80;;;6.60;;
42514;SDS011;28144;49.920;18.730;2023-02-01T01:11:24;12.03;;;6.53;;
42514;SDS011;28144;49.920;18.730;2023-02-01T01:13:52;15.03;;;6.50;;
42514;SDS011;28144;49.920;18.730;2023-02-01T01:16:19;10.35;;;5.82;;
42514;SDS011;28144;49.920;18.730;2023-02-01T01:18:45;16.00;;;7.13;;
42514;SDS011;28144;49.920;18.730;2023-02-01T01:21:12;14.17;;;6.90;;
42514;SDS011;28144;49.920;18.730;2023-02-01T01:23:39;13.37;;;6.87;;
42514;SDS011;28144;49.920;18.730;2023-02-01T01:26:09;12.60;;;6.77;;
42514;SDS011;28144;49.920;18.730;2023-02-01T01:28:39;12.90;;;6.03;;
42514;SDS011;28144;49.920;18.730;2023-02-01T01:31:12;14.30;;;5.90;;
42514;SDS011;28144;49.920;18.730;2023-02-01T01:33:39;9.43;;;5.37;;
42514;SDS011;28144;49.920;18.730;2023-02-01T01:36:05;11.43;;;5.53;;
42514;SDS011;28144;49.920;18.730;2023-02-01T01:38:32;11.80;;;6.43;;
42514;SDS011;28144;49.920;18.730;2023-02-01T01:40:57;17.10;;;8.33;;
42514;SDS011;28144;49.920;18.730;2023-02-01T01:43:24;12.80;;;6.73;;
42514;SDS011;28144;49.920;18.730;2023-02-01T01:45:50;17.55;;;6.38;;
42514;SDS011;28144;49.920;18.730;2023-02-01T01:48:26;13.10;;;4.73;;
42514;SDS011;28144;49.920;18.730;2023-02-01T01:51:04;12.20;;;5.83;;
42514;SDS011;28144;49.920;18.730;2023-02-01T01:53:35;14.27;;;6.37;;
42514;SDS011;28144;49.920;18.730;2023-02-01T01:56:05;11.20;;;6.27;;
42514;SDS011;28144;49.920;18.730;2023-02-01T01:58:31;6.53;;;3.78;;
42514;SDS011;28144;49.920;18.730;2023-02-01T02:00:58;2.97;;;1.87;;
42514;SDS011;28144;49.920;18.730;2023-02-01T02:03:43;1.60;;;0.83;;
42514;SDS011;28144;49.920;18.730;2023-02-01T02:06:16;4.47;;;2.13;;
42514;SDS011;28144;49.920;18.730;2023-02-01T02:08:53;8.23;;;2.63;;
42514;SDS011;28144;49.920;18.730;2023-02-01T02:11:19;9.03;;;3.97;;
42514;SDS011;28144;49.920;18.730;2023-02-01T02:13:46;22.17;;;11.10;;
42514;SDS011;28144;49.920;18.730;2023-02-01T02:24:39;5.33;;;0.80;;
42514;SDS011;28144;49.920;18.730;2023-02-01T02:38:26;5.50;;;1.97;;
42514;SDS011;28144;49.920;18.730;2023-02-01T02:46:33;5.60;;;2.97;;
42514;SDS011;28144;49.920;18.730;2023-02-01T02:49:23;5.10;;;2.30;;
42514;SDS011;28144;49.920;18.730;2023-02-01T02:51:55;4.00;;;3.17;;
42514;SDS011;28144;49.920;18.730;2023-02-01T02:54:44;6.70;;;3.90;;
42514;SDS011;28144;49.920;18.730;2023-02-01T03:00:02;2.67;;;1.40;;
42514;SDS011;28144;49.920;18.730;2023-02-01T03:02:48;4.10;;;1.63;;
42514;SDS011;28144;49.920;18.730;2023-02-01T03:05:34;4.33;;;1.97;;
42514;SDS011;28144;49.920;18.730;2023-02-01T03:18:52;4.10;;;1.07;;
42514;SDS011;28144;49.920;18.730;2023-02-01T03:21:33;1.80;;;0.80;;
42514;SDS011;28144;49.920;18.730;2023-02-01T03:24:03;4.23;;;1.30;;
42514;SDS011;28144;49.920;18.730;2023-02-01T03:27:00;5.63;;;2.07;;
42514;SDS011;28144;49.920;18.730;2023-02-01T03:29:30;4.70;;;2.50;;
42514;SDS011;28144;49.920;18.730;2023-02-01T03:32:01;4.53;;;1.80;;
42514;SDS011;28144;49.920;18.730;2023-02-01T03:34:27;1.87;;;1.07;;
42514;SDS011;28144;49.920;18.730;2023-02-01T03:36:56;3.83;;;1.00;;
42514;SDS011;28144;49.920;18.730;2023-02-01T03:39:36;3.63;;;1.70;;
42514;SDS011;28144;49.920;18.730;2023-02-01T03:42:08;4.13;;;1.60;;
42514;SDS011;28144;49.920;18.730;2023-02-01T03:45:07;4.10;;;2.83;;
42514;SDS011;28144;49.920;18.730;2023-02-01T03:47:44;8.93;;;4.73;;
42514;SDS011;28144;49.920;18.730;2023-02-01T03:50:30;2.97;;;1.73;;
42514;SDS011;28144;49.920;18.730;2023-02-01T03:53:29;3.90;;;2.00;;
42514;SDS011;28144;49.920;18.730;2023-02-01T03:55:49;4.53;;;2.53;;
42514;SDS011;28144;49.920;18.730;2023-02-01T04:00:53;7.70;;;4.50;;
42514;SDS011;28144;49.920;18.730;2023-02-01T04:03:20;10.63;;;5.10;;
42514;SDS011;28144;49.920;18.730;2023-02-01T04:08:13;18.85;;;7.45;;
42514;SDS011;28144;49.920;18.730;2023-02-01T04:10:39;10.80;;;5.40;;
42514;SDS011;28144;49.920;18.730;2023-02-01T04:13:04;8.97;;;4.33;;
42514;SDS011;28144;49.920;18.730;2023-02-01T04:15:30;6.88;;;3.72;;
42514;SDS011;28144;49.920;18.730;2023-02-01T04:17:56;10.17;;;4.20;;
42514;SDS011;28144;49.920;18.730;2023-02-01T04:20:22;8.53;;;3.60;;
42514;SDS011;28144;49.920;18.730;2023-02-01T04:22:48;6.63;;;3.10;;
42514;SDS011;28144;49.920;18.730;2023-02-01T04:25:14;5.53;;;2.87;;
42514;SDS011;28144;49.920;18.730;2023-02-01T04:27:39;10.37;;;5.47;;
42514;SDS011;28144;49.920;18.730;2023-02-01T04:30:05;9.63;;;3.17;;
42514;SDS011;28144;49.920;18.730;2023-02-01T04:32:35;9.97;;;2.83;;
42514;SDS011;28144;49.920;18.730;2023-02-01T04:35:02;6.33;;;3.13;;
42514;SDS011;28144;49.920;18.730;2023-02-01T04:37:28;5.97;;;2.70;;
42514;SDS011;28144;49.920;18.730;2023-02-01T04:39:54;3.93;;;2.30;;
42514;SDS011;28144;49.920;18.730;2023-02-01T04:42:20;6.03;;;2.10;;
42514;SDS011;28144;49.920;18.730;2023-02-01T04:44:46;6.28;;;2.75;;
42514;SDS011;28144;49.920;18.730;2023-02-01T04:47:12;7.40;;;2.10;;
42514;SDS011;28144;49.920;18.730;2023-02-01T04:49:38;5.28;;;2.65;;
42514;SDS011;28144;49.920;18.730;2023-02-01T04:52:03;5.77;;;1.60;;
42514;SDS011;28144;49.920;18.730;2023-02-01T04:54:29;4.70;;;2.17;;
42514;SDS011;28144;49.920;18.730;2023-02-01T04:56:55;10.20;;;2.40;;
42514;SDS011;28144;49.920;18.730;2023-02-01T04:59:21;7.27;;;3.00;;
42514;SDS011;28144;49.920;18.730;2023-02-01T05:01:46;7.37;;;1.90;;
42514;SDS011;28144;49.920;18.730;2023-02-01T05:04:12;7.27;;;2.30;;
42514;SDS011;28144;49.920;18.730;2023-02-01T05:06:38;7.20;;;1.93;;
42514;SDS011;28144;49.920;18.730;2023-02-01T05:09:04;6.23;;;1.90;;
42514;SDS011;28144;49.920;18.730;2023-02-01T05:11:29;8.67;;;2.50;;
42514;SDS011;28144;49.920;18.730;2023-02-01T05:14:14;4.90;;;2.10;;
42514;SDS011;28144;49.920;18.730;2023-02-01T05:16:40;8.10;;;3.40;;
42514;SDS011;28144;49.920;18.730;2023-02-01T05:19:06;9.67;;;2.90;;
42514;SDS011;28144;49.920;18.730;2023-02-01T05:21:32;5.27;;;1.83;;
42514;SDS011;28144;49.920;18.730;2023-02-01T05:23:58;5.83;;;2.13;;
42514;SDS011;28144;49.920;18.730;2023-02-01T05:26:38;5.97;;;2.30;;
42514;SDS011;28144;49.920;18.730;2023-02-01T05:29:08;2.97;;;2.03;;
42514;SDS011;28144;49.920;18.730;2023-02-01T05:31:34;4.20;;;1.60;;
42514;SDS011;28144;49.920;18.730;2023-02-01T05:34:00;5.93;;;1.90;;
42514;SDS011;28144;49.920;18.730;2023-02-01T05:36:26;9.23;;;2.77;;
42514;SDS011;28144;49.920;18.730;2023-02-01T05:38:52;4.47;;;1.80;;
42514;SDS011;28144;49.920;18.730;2023-02-01T05:41:17;6.60;;;1.70;;
42514;SDS011;28144;49.920;18.730;2023-02-01T05:43:46;6.17;;;1.90;;
42514;SDS011;28144;49.920;18.730;2023-02-01T05:46:11;5.73;;;1.77;;
42514;SDS011;28144;49.920;18.730;2023-02-01T05:48:39;4.87;;;1.80;;
42514;SDS011;28144;49.920;18.730;2023-02-01T05:51:05;6.65;;;1.60;;
42514;SDS011;28144;49.920;18.730;2023-02-01T05:53:31;5.17;;;1.90;;
42514;SDS011;28144;49.920;18.730;2023-02-01T05:55:56;5.17;;;1.87;;
42514;SDS011;28144;49.920;18.730;2023-02-01T05:58:22;8.23;;;2.30;;
42514;SDS011;28144;49.920;18.730;2023-02-01T06:00:48;5.40;;;2.23;;
42514;SDS011;28144;49.920;18.730;2023-02-01T06:03:14;5.30;;;1.30;;
42514;SDS011;28144;49.920;18.730;2023-02-01T06:05:39;1.70;;;1.00;;
42514;SDS011;28144;49.920;18.730;2023-02-01T06:08:05;5.57;;;1.50;;
42514;SDS011;28144;49.920;18.730;2023-02-01T06:10:32;5.13;;;1.13;;
42514;SDS011;28144;49.920;18.730;2023-02-01T06:12:58;5.85;;;1.45;;
42514;SDS011;28144;49.920;18.730;2023-02-01T06:15:24;5.30;;;1.30;;
42514;SDS011;28144;49.920;18.730;2023-02-01T06:17:50;3.07;;;1.53;;
42514;SDS011;28144;49.920;18.730;2023-02-01T06:20:16;3.23;;;1.40;;
42514;SDS011;28144;49.920;18.730;2023-02-01T06:22:42;6.18;;;2.28;;
42514;SDS011;28144;49.920;18.730;2023-02-01T06:25:08;5.63;;;1.60;;
42514;SDS011;28144;49.920;18.730;2023-02-01T06:27:35;5.00;;;2.10;;
42514;SDS011;28144;49.920;18.730;2023-02-01T06:30:01;6.88;;;2.25;;
42514;SDS011;28144;49.920;18.730;2023-02-01T06:32:28;6.57;;;1.70;;
42514;SDS011;28144;49.920;18.730;2023-02-01T06:34:54;5.03;;;1.97;;
42514;SDS011;28144;49.920;18.730;2023-02-01T06:39:48;4.00;;;1.73;;
42514;SDS011;28144;49.920;18.730;2023-02-01T06:42:14;7.63;;;3.35;;
42514;SDS011;28144;49.920;18.730;2023-02-01T06:44:40;8.63;;;2.10;;
42514;SDS011;28144;49.920;18.730;2023-02-01T06:47:06;6.67;;;2.70;;
42514;SDS011;28144;49.920;18.730;2023-02-01T06:49:31;6.67;;;2.47;;
42514;SDS011;28144;49.920;18.730;2023-02-01T06:51:57;8.67;;;3.00;;
42514;SDS011;28144;49.920;18.730;2023-02-01T06:54:25;8.13;;;2.90;;
42514;SDS011;28144;49.920;18.730;2023-02-01T06:56:52;7.63;;;2.50;;
42514;SDS011;28144;49.920;18.730;2023-02-01T06:59:17;9.57;;;2.50;;
42514;SDS011;28144;49.920;18.730;2023-02-01T07:01:43;7.53;;;2.77;;
42514;SDS011;28144;49.920;18.730;2023-02-01T07:04:10;9.97;;;2.90;;
42514;SDS011;28144;49.920;18.730;2023-02-01T07:06:37;10.27;;;3.40;;
42514;SDS011;28144;49.920;18.730;2023-02-01T07:09:03;8.25;;;2.33;;
42514;SDS011;28144;49.920;18.730;2023-02-01T07:11:29;8.33;;;3.07;;
42514;SDS011;28144;49.920;18.730;2023-02-01T07:13:55;13.88;;;6.35;;
42514;SDS011;28144;49.920;18.730;2023-02-01T07:16:21;9.70;;;2.50;;
42514;SDS011;28144;49.920;18.730;2023-02-01T07:18:47;8.27;;;3.00;;
42514;SDS011;28144;49.920;18.730;2023-02-01T07:21:15;6.53;;;2.33;;
42514;SDS011;28144;49.920;18.730;2023-02-01T07:23:40;11.60;;;2.90;;
42514;SDS011;28144;49.920;18.730;2023-02-01T07:26:07;6.17;;;2.20;;
42514;SDS011;28144;49.920;18.730;2023-02-01T07:28:34;8.43;;;3.00;;
42514;SDS011;28144;49.920;18.730;2023-02-01T07:33:33;6.73;;;2.00;;
42514;SDS011;28144;49.920;18.730;2023-02-01T07:36:04;4.53;;;1.73;;
42514;SDS011;28144;49.920;18.730;2023-02-01T07:38:31;10.50;;;2.07;;
42514;SDS011;28144;49.920;18.730;2023-02-01T07:41:00;7.83;;;2.67;;
42514;SDS011;28144;49.920;18.730;2023-02-01T07:43:27;6.00;;;2.43;;
42514;SDS011;28144;49.920;18.730;2023-02-01T07:45:53;6.22;;;1.80;;
42514;SDS011;28144;49.920;18.730;2023-02-01T07:48:20;8.97;;;3.07;;
42514;SDS011;28144;49.920;18.730;2023-02-01T07:53:12;3.57;;;1.40;;
42514;SDS011;28144;49.920;18.730;2023-02-01T07:55:38;5.47;;;1.73;;
42514;SDS011;28144;49.920;18.730;2023-02-01T07:58:04;7.78;;;1.90;;
42514;SDS011;28144;49.920;18.730;2023-02-01T08:00:30;6.43;;;1.80;;
42514;SDS011;28144;49.920;18.730;2023-02-01T08:03:14;6.33;;;1.87;;
42514;SDS011;28144;49.920;18.730;2023-02-01T08:05:40;10.33;;;3.50;;
42514;SDS011;28144;49.920;18.730;2023-02-01T08:08:06;10.07;;;2.23;;
42514;SDS011;28144;49.920;18.730;2023-02-01T08:10:32;8.70;;;1.83;;
42514;SDS011;28144;49.920;18.730;2023-02-01T08:12:59;9.73;;;2.33;;
42514;SDS011;28144;49.920;18.730;2023-02-01T08:15:26;5.13;;;2.10;;
42514;SDS011;28144;49.920;18.730;2023-02-01T08:17:53;6.97;;;2.17;;
42514;SDS011;28144;49.920;18.730;2023-02-01T08:20:20;7.77;;;2.10;;
42514;SDS011;28144;49.920;18.730;2023-02-01T08:22:48;5.33;;;2.00;;
42514;SDS011;28144;49.920;18.730;2023-02-01T08:25:15;9.13;;;3.17;;
42514;SDS011;28144;49.920;18.730;2023-02-01T08:27:41;10.93;;;2.40;;
42514;SDS011;28144;49.920;18.730;2023-02-01T08:30:07;5.25;;;2.30;;
42514;SDS011;28144;49.920;18.730;2023-02-01T08:32:34;7.97;;;2.05;;
42514;SDS011;28144;49.920;18.730;2023-02-01T08:35:00;8.88;;;2.53;;
42514;SDS011;28144;49.920;18.730;2023-02-01T08:37:25;5.73;;;2.30;;
42514;SDS011;28144;49.920;18.730;2023-02-01T08:39:51;7.70;;;2.53;;
42514;SDS011;28144;49.920;18.730;2023-02-01T08:42:17;6.60;;;2.50;;
42514;SDS011;28144;49.920;18.730;2023-02-01T08:45:05;9.50;;;2.67;;
42514;SDS011;28144;49.920;18.730;2023-02-01T08:47:33;4.60;;;1.93;;
42514;SDS011;28144;49.920;18.730;2023-02-01T08:49:59;5.22;;;1.67;;
42514;SDS011;28144;49.920;18.730;2023-02-01T08:52:25;9.30;;;2.90;;
42514;SDS011;28144;49.920;18.730;2023-02-01T08:54:51;8.47;;;2.40;;
42514;SDS011;28144;49.920;18.730;2023-02-01T08:57:16;9.37;;;2.70;;
42514;SDS011;28144;49.920;18.730;2023-02-01T08:59:42;11.57;;;3.77;;
42514;SDS011;28144;49.920;18.730;2023-02-01T09:02:11;11.57;;;3.88;;
42514;SDS011;28144;49.920;18.730;2023-02-01T09:04:38;9.27;;;3.13;;
42514;SDS011;28144;49.920;18.730;2023-02-01T09:07:05;14.18;;;3.67;;
42514;SDS011;28144;49.920;18.730;2023-02-01T09:09:31;12.35;;;3.78;;
42514;SDS011;28144;49.920;18.730;2023-02-01T09:11:57;15.23;;;3.47;;
42514;SDS011;28144;49.920;18.730;2023-02-01T09:14:23;9.97;;;2.43;;
42514;SDS011;28144;49.920;18.730;2023-02-01T09:16:48;14.50;;;2.73;;
42514;SDS011;28144;49.920;18.730;2023-02-01T09:19:14;9.47;;;2.57;;
42514;SDS011;28144;49.920;18.730;2023-02-01T09:21:40;10.97;;;2.80;;
42514;SDS011;28144;49.920;18.730;2023-02-01T09:24:06;6.57;;;2.10;;
42514;SDS011;28144;49.920;18.730;2023-02-01T09:26:32;12.10;;;2.63;;
42514;SDS011;28144;49.920;18.730;2023-02-01T09:28:58;7.63;;;2.28;;
42514;SDS011;28144;49.920;18.730;2023-02-01T09:31:24;3.92;;;1.77;;
42514;SDS011;28144;49.920;18.730;2023-02-01T09:33:50;8.60;;;2.57;;
42514;SDS011;28144;49.920;18.730;2023-02-01T09:36:16;7.37;;;2.13;;
42514;SDS011;28144;49.920;18.730;2023-02-01T09:38:45;8.80;;;2.50;;
42514;SDS011;28144;49.920;18.730;2023-02-01T09:44:07;7.73;;;2.30;;
42514;SDS011;28144;49.920;18.730;2023-02-01T09:46:47;5.03;;;2.30;;
42514;SDS011;28144;49.920;18.730;2023-02-01T09:49:18;10.33;;;2.10;;
42514;SDS011;28144;49.920;18.730;2023-02-01T09:51:46;6.93;;;2.03;;
42514;SDS011;28144;49.920;18.730;2023-02-01T09:54:27;5.57;;;2.07;;
42514;SDS011;28144;49.920;18.730;2023-02-01T09:57:08;9.13;;;2.23;;
42514;SDS011;28144;49.920;18.730;2023-02-01T10:00:28;6.93;;;2.30;;
42514;SDS011;28144;49.920;18.730;2023-02-01T10:02:44;8.00;;;2.77;;
42514;SDS011;28144;49.920;18.730;2023-02-01T10:05:15;6.27;;;1.93;;
42514;SDS011;28144;49.920;18.730;2023-02-01T10:10:11;18.98;;;2.55;;
42514;SDS011;28144;49.920;18.730;2023-02-01T10:12:48;12.60;;;3.87;;
42514;SDS011;28144;49.920;18.730;2023-02-01T10:18:20;15.37;;;2.83;;
42514;SDS011;28144;49.920;18.730;2023-02-01T10:21:13;10.03;;;2.33;;
42514;SDS011;28144;49.920;18.730;2023-02-01T10:23:50;8.20;;;2.10;;
42514;SDS011;28144;49.920;18.730;2023-02-01T10:26:20;11.10;;;2.53;;
42514;SDS011;28144;49.920;18.730;2023-02-01T10:28:51;8.57;;;2.50;;
42514;SDS011;28144;49.920;18.730;2023-02-01T10:31:20;9.87;;;2.30;;
42514;SDS011;28144;49.920;18.730;2023-02-01T10:33:48;9.77;;;2.07;;
42514;SDS011;28144;49.920;18.730;2023-02-01T10:36:19;8.30;;;2.33;;
42514;SDS011;28144;49.920;18.730;2023-02-01T10:38:48;5.93;;;2.20;;
42514;SDS011;28144;49.920;18.730;2023-02-01T10:41:16;7.07;;;2.10;;
42514;SDS011;28144;49.920;18.730;2023-02-01T10:43:44;8.97;;;2.50;;
42514;SDS011;28144;49.920;18.730;2023-02-01T10:46:11;9.17;;;2.40;;
42514;SDS011;28144;49.920;18.730;2023-02-01T10:48:37;8.37;;;1.80;;
42514;SDS011;28144;49.920;18.730;2023-02-01T10:51:10;7.85;;;2.28;;
42514;SDS011;28144;49.920;18.730;2023-02-01T10:53:42;6.37;;;2.00;;
42514;SDS011;28144;49.920;18.730;2023-02-01T10:56:10;9.77;;;2.47;;
42514;SDS011;28144;49.920;18.730;2023-02-01T10:58:46;8.77;;;2.45;;
42514;SDS011;28144;49.920;18.730;2023-02-01T11:01:20;8.63;;;2.65;;
42514;SDS011;28144;49.920;18.730;2023-02-01T11:03:54;8.97;;;2.60;;
42514;SDS011;28144;49.920;18.730;2023-02-01T11:08:57;10.57;;;3.30;;
42514;SDS011;28144;49.920;18.730;2023-02-01T11:11:24;8.37;;;3.80;;
42514;SDS011;28144;49.920;18.730;2023-02-01T11:13:55;10.30;;;3.67;;
42514;SDS011;28144;49.920;18.730;2023-02-01T11:16:28;12.60;;;2.60;;
42514;SDS011;28144;49.920;18.730;2023-02-01T11:18:55;6.57;;;2.93;;
42514;SDS011;28144;49.920;18.730;2023-02-01T11:21:21;9.03;;;2.73;;
42514;SDS011;28144;49.920;18.730;2023-02-01T11:36:21;11.83;;;3.80;;
42514;SDS011;28144;49.920;18.730;2023-02-01T11:38:53;12.47;;;3.80;;
42514;SDS011;28144;49.920;18.730;2023-02-01T11:41:21;10.50;;;3.73;;
42514;SDS011;28144;49.920;18.730;2023-02-01T11:43:51;7.23;;;3.20;;
42514;SDS011;28144;49.920;18.730;2023-02-01T11:46:18;9.82;;;3.25;;
42514;SDS011;28144;49.920;18.730;2023-02-01T11:48:53;11.83;;;4.27;;
42514;SDS011;28144;49.920;18.730;2023-02-01T11:56:57;11.90;;;4.37;;
42514;SDS011;28144;49.920;18.730;2023-02-01T12:13:12;8.17;;;3.50;;
42514;SDS011;28144;49.920;18.730;2023-02-01T12:15:42;9.47;;;3.73;;
42514;SDS011;28144;49.920;18.730;2023-02-01T12:18:39;13.55;;;4.30;;
42514;SDS011;28144;49.920;18.730;2023-02-01T12:21:16;11.10;;;3.50;;
42514;SDS011;28144;49.920;18.730;2023-02-01T12:23:46;9.83;;;3.63;;
42514;SDS011;28144;49.920;18.730;2023-02-01T12:35:13;8.93;;;3.43;;
42514;SDS011;28144;49.920;18.730;2023-02-01T12:37:51;12.73;;;3.70;;
42514;SDS011;28144;49.920;18.730;2023-02-01T12:46:08;6.97;;;2.73;;
42514;SDS011;28144;49.920;18.730;2023-02-01T12:48:49;9.67;;;2.80;;
42514;SDS011;28144;49.920;18.730;2023-02-01T12:51:31;7.13;;;2.23;;
42514;SDS011;28144;49.920;18.730;2023-02-01T12:56:32;5.60;;;2.40;;
42514;SDS011;28144;49.920;18.730;2023-02-01T12:59:04;8.50;;;2.87;;
42514;SDS011;28144;49.920;18.730;2023-02-01T13:01:39;8.00;;;2.40;;
42514;SDS011;28144;49.920;18.730;2023-02-01T13:04:15;11.37;;;2.90;;
42514;SDS011;28144;49.920;18.730;2023-02-01T13:12:04;6.27;;;2.30;;
42514;SDS011;28144;49.920;18.730;2023-02-01T13:14:40;4.95;;;2.25;;
42514;SDS011;28144;49.920;18.730;2023-02-01T13:17:30;5.03;;;2.23;;
42514;SDS011;28144;49.920;18.730;2023-02-01T13:22:43;5.17;;;2.20;;
42514;SDS011;28144;49.920;18.730;2023-02-01T13:25:13;6.93;;;2.43;;
42514;SDS011;28144;49.920;18.730;2023-02-01T13:27:41;14.33;;;2.20;;
42514;SDS011;28144;49.920;18.730;2023-02-01T13:30:18;10.15;;;2.50;;
42514;SDS011;28144;49.920;18.730;2023-02-01T13:39:08;5.20;;;2.20;;
42514;SDS011;28144;49.920;18.730;2023-02-01T13:43:50;4.77;;;1.77;;
42514;SDS011;28144;49.920;18.730;2023-02-01T13:46:17;5.70;;;2.53;;
42514;SDS011;28144;49.920;18.730;2023-02-01T13:48:47;5.70;;;2.13;;
42514;SDS011;28144;49.920;18.730;2023-02-01T13:51:16;6.80;;;2.30;;
42514;SDS011;28144;49.920;18.730;2023-02-01T13:53:59;7.93;;;1.90;;
42514;SDS011;28144;49.920;18.730;2023-02-01T13:56:25;6.40;;;2.50;;
42514;SDS011;28144;49.920;18.730;2023-02-01T13:58:51;4.00;;;1.83;;
42514;SDS011;28144;49.920;18.730;2023-02-01T14:03:55;6.00;;;1.80;;
42514;SDS011;28144;49.920;18.730;2023-02-01T14:09:34;5.97;;;2.23;;
42514;SDS011;28144;49.920;18.730;2023-02-01T14:11:57;9.23;;;2.80;;
42514;SDS011;28144;49.920;18.730;2023-02-01T14:19:20;7.00;;;4.03;;
42514;SDS011;28144;49.920;18.730;2023-02-01T14:21:47;7.90;;;3.57;;
42514;SDS011;28144;49.920;18.730;2023-02-01T14:24:26;7.07;;;3.70;;
42514;SDS011;28144;49.920;18.730;2023-02-01T14:27:00;4.63;;;3.30;;
42514;SDS011;28144;49.920;18.730;2023-02-01T14:29:34;8.80;;;3.87;;
42514;SDS011;28144;49.920;18.730;2023-02-01T14:44:50;10.30;;;4.93;;
42514;SDS011;28144;49.920;18.730;2023-02-01T14:49:52;9.73;;;5.00;;
42514;SDS011;28144;49.920;18.730;2023-02-01T14:52:40;9.97;;;5.40;;
42514;SDS011;28144;49.920;18.730;2023-02-01T14:55:30;10.00;;;5.30;;
42514;SDS011;28144;49.920;18.730;2023-02-01T14:58:04;12.10;;;5.60;;
42514;SDS011;28144;49.920;18.730;2023-02-01T15:00:32;12.30;;;6.03;;
42514;SDS011;28144;49.920;18.730;2023-02-01T15:05:56;14.57;;;6.17;;
42514;SDS011;28144;49.920;18.730;2023-02-01T15:08:25;16.00;;;6.73;;
42514;SDS011;28144;49.920;18.730;2023-02-01T15:10:54;15.30;;;6.40;;
42514;SDS011;28144;49.920;18.730;2023-02-01T15:13:24;14.82;;;7.30;;
42514;SDS011;28144;49.920;18.730;2023-02-01T15:16:02;15.50;;;7.47;;
42514;SDS011;28144;49.920;18.730;2023-02-01T15:18:31;10.27;;;6.07;;
42514;SDS011;28144;49.920;18.730;2023-02-01T15:21:01;14.40;;;6.03;;
42514;SDS011;28144;49.920;18.730;2023-02-01T15:23:28;11.27;;;6.33;;
42514;SDS011;28144;49.920;18.730;2023-02-01T15:25:54;14.20;;;6.53;;
42514;SDS011;28144;49.920;18.730;2023-02-01T15:28:20;12.02;;;6.35;;
42514;SDS011;28144;49.920;18.730;2023-02-01T15:33:24;14.50;;;7.63;;
42514;SDS011;28144;49.920;18.730;2023-02-01T15:36:07;18.40;;;7.63;;
42514;SDS011;28144;49.920;18.730;2023-02-01T15:38:41;21.90;;;8.50;;
42514;SDS011;28144;49.920;18.730;2023-02-01T15:41:14;22.87;;;10.17;;
42514;SDS011;28144;49.920;18.730;2023-02-01T15:43:47;23.70;;;9.77;;
42514;SDS011;28144;49.920;18.730;2023-02-01T15:46:42;20.47;;;10.47;;
42514;SDS011;28144;49.920;18.730;2023-02-01T15:49:32;21.77;;;9.67;;
42514;SDS011;28144;49.920;18.730;2023-02-01T15:51:58;21.92;;;8.48;;
42514;SDS011;28144;49.920;18.730;2023-02-01T15:54:26;22.00;;;8.43;;
42514;SDS011;28144;49.920;18.730;2023-02-01T15:56:56;19.87;;;9.07;;
42514;SDS011;28144;49.920;18.730;2023-02-01T15:59:29;21.83;;;7.03;;
42514;SDS011;28144;49.920;18.730;2023-02-01T16:02:35;13.60;;;6.17;;
42514;SDS011;28144;49.920;18.730;2023-02-01T16:05:05;13.30;;;5.20;;
42514;SDS011;28144;49.920;18.730;2023-02-01T16:10:38;9.10;;;3.77;;
42514;SDS011;28144;49.920;18.730;2023-02-01T16:13:08;9.60;;;3.90;;
42514;SDS011;28144;49.920;18.730;2023-02-01T16:15:34;10.23;;;4.07;;
42514;SDS011;28144;49.920;18.730;2023-02-01T16:18:06;9.83;;;3.83;;
42514;SDS011;28144;49.920;18.730;2023-02-01T16:20:36;9.50;;;3.73;;
42514;SDS011;28144;49.920;18.730;2023-02-01T16:23:04;11.63;;;4.17;;
42514;SDS011;28144;49.920;18.730;2023-02-01T16:25:30;10.90;;;4.32;;
42514;SDS011;28144;49.920;18.730;2023-02-01T16:27:56;9.80;;;3.70;;
42514;SDS011;28144;49.920;18.730;2023-02-01T16:30:22;9.03;;;3.50;;
42514;SDS011;28144;49.920;18.730;2023-02-01T16:32:56;9.18;;;4.07;;
42514;SDS011;28144;49.920;18.730;2023-02-01T16:35:28;8.53;;;4.30;;
42514;SDS011;28144;49.920;18.730;2023-02-01T16:38:00;10.37;;;4.53;;
42514;SDS011;28144;49.920;18.730;2023-02-01T16:40:39;14.77;;;4.70;;
42514;SDS011;28144;49.920;18.730;2023-02-01T16:43:13;18.17;;;7.70;;
42514;SDS011;28144;49.920;18.730;2023-02-01T16:45:41;19.67;;;8.47;;
42514;SDS011;28144;49.920;18.730;2023-02-01T16:48:17;17.27;;;6.80;;
42514;SDS011;28144;49.920;18.730;2023-02-01T16:50:45;21.83;;;8.47;;
42514;SDS011;28144;49.920;18.730;2023-02-01T16:53:12;31.87;;;12.37;;
42514;SDS011;28144;49.920;18.730;2023-02-01T16:55:39;15.67;;;6.80;;
42514;SDS011;28144;49.920;18.730;2023-02-01T16:58:05;14.90;;;6.43;;
42514;SDS011;28144;49.920;18.730;2023-02-01T17:00:31;17.07;;;6.50;;
42514;SDS011;28144;49.920;18.730;2023-02-01T17:02:58;12.77;;;4.93;;
42514;SDS011;28144;49.920;18.730;2023-02-01T17:05:24;10.73;;;5.23;;
42514;SDS011;28144;49.920;18.730;2023-02-01T17:07:50;13.47;;;5.40;;
42514;SDS011;28144;49.920;18.730;2023-02-01T17:10:25;15.02;;;5.85;;
42514;SDS011;28144;49.920;18.730;2023-02-01T17:12:52;12.03;;;5.53;;
42514;SDS011;28144;49.920;18.730;2023-02-01T17:15:18;16.40;;;5.90;;
42514;SDS011;28144;49.920;18.730;2023-02-01T17:17:43;15.37;;;7.00;;
42514;SDS011;28144;49.920;18.730;2023-02-01T17:20:20;14.13;;;5.55;;
42514;SDS011;28144;49.920;18.730;2023-02-01T17:22:48;12.90;;;4.70;;
42514;SDS011;28144;49.920;18.730;2023-02-01T17:25:16;11.55;;;5.28;;
42514;SDS011;28144;49.920;18.730;2023-02-01T17:27:42;12.73;;;4.07;;
42514;SDS011;28144;49.920;18.730;2023-02-01T17:30:10;12.07;;;4.13;;